Time;durP1;ratioP1;P1;durP2;ratioP2;P2;SDS_P1;SDS_P2;PMS_P1;PMS_P2;Temp;Humidity;BMP_temperature;BMP_pressure;BME280_temperature;BME280_humidity;BME280_pressure;Samples;Min_cycle;Max_cycle;Signal;HPM_P1;HPM_P2
2024/01/31 00:00:36;;;;;;;17.58;7.90;;;;;;;;;;6218299;28;20096;-73
2024/01/31 00:03:38;;;;;;;14.55;10.82;;;;;;;;;;6228218;28;20054;-74
2024/01/31 00:06:41;;;;;;;18.38;10.40;;;;;;;;;;6235094;28;20856;-74
2024/01/31 00:09:43;;;;;;;16.17;14.52;;;;;;;;;;6233115;28;20041;-74
2024/01/31 00:12:45;;;;;;;11.88;5.78;;;;;;;;;;6232609;28;20163;-74
2024/01/31 00:15:47;;;;;;;13.90;10.93;;;;;;;;;;6232608;28;20041;-73
2024/01/31 00:18:50;;;;;;;11.55;10.43;;;;;;;;;;6240303;28;20106;-73
2024/01/31 00:21:52;;;;;;;15.27;9.85;;;;;;;;;;6232914;28;20524;-73
2024/01/31 00:24:54;;;;;;;10.57;9.32;;;;;;;;;;6233256;28;20103;-74
2024/01/31 00:27:56;;;;;;;11.95;8.77;;;;;;;;;;6231644;28;20543;-74
2024/01/31 00:30:58;;;;;;;10.63;7.60;;;;;;;;;;6234090;28;20305;-74
2024/01/31 00:34:01;;;;;;;11.27;10.30;;;;;;;;;;6230803;28;20528;-74
2024/01/31 00:37:03;;;;;;;9.57;8.65;;;;;;;;;;6234425;28;20053;-74
2024/01/31 00:40:06;;;;;;;15.70;12.43;;;;;;;;;;6213321;28;20045;-74
2024/01/31 00:43:09;;;;;;;11.63;7.97;;;;;;;;;;6219165;28;20062;-74
2024/01/31 00:46:11;;;;;;;10.00;9.20;;;;;;;;;;6213811;28;20041;-74
2024/01/31 00:49:14;;;;;;;15.57;10.57;;;;;;;;;;6226262;28;20432;-73
2024/01/31 00:52:18;;;;;;;8.80;7.63;;;;;;;;;;6236985;28;20212;-74
2024/01/31 00:55:22;;;;;;;9.90;9.18;;;;;;;;;;6233092;28;20056;-73
2024/01/31 00:58:24;;;;;;;9.60;8.85;;;;;;;;;;6231839;28;20132;-73
2024/01/31 01:01:26;;;;;;;7.68;7.10;;;;;;;;;;6252312;28;20822;-74
2024/01/31 01:04:28;;;;;;;10.60;9.23;;;;;;;;;;6218244;28;20064;-73
2024/01/31 01:07:31;;;;;;;10.27;9.23;;;;;;;;;;6224634;28;20057;-75
2024/01/31 01:10:33;;;;;;;14.50;13.13;;;;;;;;;;6238872;28;20052;-74
2024/01/31 01:13:35;;;;;;;10.07;9.07;;;;;;;;;;6232016;28;20042;-74
2024/01/31 01:16:38;;;;;;;10.35;9.30;;;;;;;;;;6233268;28;20048;-76
2024/01/31 01:19:40;;;;;;;11.60;9.25;;;;;;;;;;6230516;28;20057;-73
2024/01/31 01:22:46;;;;;;;11.13;10.18;;;;;;;;;;6228707;28;20088;-73
2024/01/31 01:25:48;;;;;;;9.00;5.57;;;;;;;;;;6228132;28;20080;-75
2024/01/31 01:28:52;;;;;;;11.82;9.38;;;;;;;;;;6261216;28;20045;-74
2024/01/31 01:31:54;;;;;;;8.60;7.75;;;;;;;;;;6231159;28;20049;-74
2024/01/31 01:34:57;;;;;;;9.98;9.27;;;;;;;;;;6250005;28;20049;-73
2024/01/31 01:38:00;;;;;;;8.82;7.57;;;;;;;;;;6233733;28;20136;-73
2024/01/31 01:41:03;;;;;;;11.93;7.60;;;;;;;;;;6225998;28;20041;-73
2024/01/31 01:44:07;;;;;;;7.88;7.15;;;;;;;;;;6228142;28;20130;-73
2024/01/31 01:47:12;;;;;;;8.70;7.85;;;;;;;;;;6240164;28;20055;-73
2024/01/31 01:50:14;;;;;;;7.63;6.97;;;;;;;;;;6197589;28;20179;-74
2024/01/31 01:53:16;;;;;;;7.28;6.65;;;;;;;;;;6233271;28;20069;-74
2024/01/31 01:56:18;;;;;;;9.23;8.32;;;;;;;;;;6240024;28;20095;-74
2024/01/31 01:59:21;;;;;;;7.38;6.72;;;;;;;;;;6227568;28;20059;-74
2024/01/31 02:02:24;;;;;;;9.05;8.30;;;;;;;;;;6227201;28;20052;-74
2024/01/31 02:05:30;;;;;;;10.65;4.40;;;;;;;;;;6217064;28;20752;-74
2024/01/31 02:08:32;;;;;;;7.95;7.35;;;;;;;;;;6234308;28;20041;-74
2024/01/31 02:11:35;;;;;;;8.65;7.60;;;;;;;;;;6242045;28;20052;-74
2024/01/31 02:14:37;;;;;;;13.27;7.00;;;;;;;;;;6232804;28;20487;-74
2024/01/31 02:17:39;;;;;;;8.82;8.13;;;;;;;;;;6230157;28;20752;-74
2024/01/31 02:20:41;;;;;;;9.93;8.80;;;;;;;;;;6233676;28;20048;-75
2024/01/31 02:23:43;;;;;;;12.60;9.98;;;;;;;;;;6260328;28;20715;-74
2024/01/31 02:26:46;;;;;;;9.20;8.48;;;;;;;;;;6229561;28;20049;-74
2024/01/31 02:29:48;;;;;;;12.18;11.10;;;;;;;;;;6224364;28;20041;-74
2024/01/31 02:32:54;;;;;;;12.88;11.20;;;;;;;;;;6221760;28;20061;-73
2024/01/31 02:35:56;;;;;;;10.77;9.00;;;;;;;;;;6228936;28;20041;-73
2024/01/31 02:38:58;;;;;;;11.85;10.60;;;;;;;;;;6208313;28;20118;-73
2024/01/31 02:42:00;;;;;;;11.85;10.70;;;;;;;;;;6214940;28;20073;-73
2024/01/31 02:45:03;;;;;;;16.40;10.43;;;;;;;;;;6209723;28;20096;-72
2024/01/31 02:48:08;;;;;;;10.65;9.73;;;;;;;;;;6199112;28;20076;-73
2024/01/31 02:51:11;;;;;;;12.98;9.90;;;;;;;;;;6215428;28;20104;-75
2024/01/31 02:54:13;;;;;;;11.77;6.75;;;;;;;;;;6194764;28;20191;-73
2024/01/31 02:57:15;;;;;;;9.68;8.40;;;;;;;;;;6230183;28;20049;-74
2024/01/31 03:00:17;;;;;;;9.60;8.65;;;;;;;;;;6219366;28;20041;-74
2024/01/31 03:03:20;;;;;;;6.10;3.25;;;;;;;;;;6226224;28;20436;-74
2024/01/31 03:06:22;;;;;;;6.00;4.00;;;;;;;;;;6230842;28;20757;-74
2024/01/31 03:09:24;;;;;;;10.85;9.85;;;;;;;;;;6225387;28;20684;-75
2024/01/31 03:12:26;;;;;;;9.93;8.75;;;;;;;;;;6219769;28;20315;-74
2024/01/31 03:15:28;;;;;;;13.43;9.65;;;;;;;;;;6233950;28;20053;-73
2024/01/31 03:18:30;;;;;;;11.35;8.90;;;;;;;;;;6235055;28;20061;-73
2024/01/31 03:21:33;;;;;;;9.68;8.40;;;;;;;;;;6223756;28;20162;-73
2024/01/31 03:24:38;;;;;;;10.27;5.82;;;;;;;;;;6230851;28;20124;-74
2024/01/31 03:27:40;;;;;;;10.95;8.25;;;;;;;;;;6218115;28;20077;-72
2024/01/31 03:30:42;;;;;;;9.30;7.97;;;;;;;;;;6216562;28;20046;-73
2024/01/31 03:33:44;;;;;;;9.07;8.27;;;;;;;;;;6265087;28;20046;-73
2024/01/31 03:36:47;;;;;;;8.15;7.30;;;;;;;;;;6219471;28;20435;-73
2024/01/31 03:39:49;;;;;;;12.50;11.40;;;;;;;;;;6231039;28;20038;-73
2024/01/31 03:42:54;;;;;;;13.20;8.88;;;;;;;;;;6229172;28;20102;-73
2024/01/31 03:45:56;;;;;;;9.13;8.25;;;;;;;;;;6216414;28;20053;-73
2024/01/31 03:49:00;;;;;;;6.85;4.55;;;;;;;;;;6248918;28;20414;-73
2024/01/31 03:52:03;;;;;;;9.23;8.57;;;;;;;;;;6239760;28;20106;-73
2024/01/31 03:55:05;;;;;;;8.02;7.30;;;;;;;;;;6219757;28;20084;-74
2024/01/31 03:58:08;;;;;;;11.10;7.75;;;;;;;;;;6231397;28;20049;-74
2024/01/31 04:01:14;;;;;;;8.95;8.07;;;;;;;;;;6236011;28;20052;-74
2024/01/31 04:04:17;;;;;;;10.95;9.93;;;;;;;;;;6218599;28;20080;-74
2024/01/31 04:07:19;;;;;;;7.53;6.82;;;;;;;;;;6233273;28;20106;-74
2024/01/31 04:10:21;;;;;;;8.57;7.82;;;;;;;;;;6232516;28;20607;-73
2024/01/31 04:13:23;;;;;;;12.63;8.30;;;;;;;;;;6236838;28;20132;-76
2024/01/31 04:16:25;;;;;;;11.20;8.93;;;;;;;;;;6232081;28;20140;-75
2024/01/31 04:19:28;;;;;;;13.20;12.25;;;;;;;;;;6230148;28;20038;-73
2024/01/31 04:22:31;;;;;;;9.20;8.30;;;;;;;;;;6207721;28;20144;-75
2024/01/31 04:25:33;;;;;;;9.45;8.60;;;;;;;;;;6233922;28;20042;-74
2024/01/31 04:28:36;;;;;;;11.98;10.95;;;;;;;;;;6215311;28;20057;-75
2024/01/31 04:31:38;;;;;;;10.27;9.23;;;;;;;;;;6202410;28;20068;-74
2024/01/31 04:34:40;;;;;;;12.80;10.07;;;;;;;;;;6238637;28;20053;-76
2024/01/31 04:37:42;;;;;;;11.07;9.43;;;;;;;;;;6230499;28;20064;-74
2024/01/31 04:40:45;;;;;;;14.80;8.38;;;;;;;;;;6221991;28;20045;-76
2024/01/31 04:43:48;;;;;;;13.35;12.20;;;;;;;;;;6230910;28;20112;-74
2024/01/31 04:46:51;;;;;;;9.25;7.35;;;;;;;;;;6230848;28;20041;-76
2024/01/31 04:49:53;;;;;;;8.02;7.43;;;;;;;;;;6242750;28;20049;-75
2024/01/31 04:52:56;;;;;;;7.05;4.35;;;;;;;;;;6238500;28;20452;-75
2024/01/31 04:55:58;;;;;;;12.45;7.82;;;;;;;;;;6233522;28;20192;-74
2024/01/31 04:59:00;;;;;;;7.70;7.13;;;;;;;;;;6234568;28;20046;-73
2024/01/31 05:02:03;;;;;;;10.93;10.02;;;;;;;;;;6231166;28;20551;-74
2024/01/31 05:05:06;;;;;;;11.38;10.57;;;;;;;;;;6221252;28;20053;-75
2024/01/31 05:08:09;;;;;;;9.05;8.45;;;;;;;;;;6234631;28;20045;-75
2024/01/31 05:11:14;;;;;;;10.80;9.85;;;;;;;;;;6228475;28;20050;-74
2024/01/31 05:14:18;;;;;;;10.23;9.45;;;;;;;;;;6224128;28;20058;-74
2024/01/31 05:17:20;;;;;;;10.50;9.52;;;;;;;;;;6228632;28;20149;-73
2024/01/31 05:20:22;;;;;;;13.73;12.55;;;;;;;;;;6246904;28;20079;-73
2024/01/31 05:23:25;;;;;;;13.23;11.82;;;;;;;;;;6213151;28;20180;-74
2024/01/31 05:26:27;;;;;;;11.23;10.13;;;;;;;;;;6230060;28;20057;-73
2024/01/31 05:29:30;;;;;;;6.72;6.15;;;;;;;;;;6208810;28;20292;-74
2024/01/31 05:32:32;;;;;;;13.10;12.07;;;;;;;;;;6192903;28;20140;-74
2024/01/31 05:35:36;;;;;;;9.45;8.60;;;;;;;;;;6249178;28;20130;-73
2024/01/31 05:38:39;;;;;;;9.77;8.77;;;;;;;;;;6228153;28;20080;-74
2024/01/31 05:41:42;;;;;;;10.68;9.77;;;;;;;;;;6214804;28;20068;-74
2024/01/31 05:44:45;;;;;;;9.07;8.48;;;;;;;;;;6230956;28;20053;-74
2024/01/31 05:47:47;;;;;;;12.88;8.40;;;;;;;;;;6229965;28;20544;-76
2024/01/31 05:50:50;;;;;;;11.82;11.02;;;;;;;;;;6241773;28;20046;-74
2024/01/31 05:53:53;;;;;;;9.60;8.80;;;;;;;;;;6235333;28;20815;-74
2024/01/31 05:56:55;;;;;;;8.48;7.65;;;;;;;;;;6228375;28;20052;-76
2024/01/31 05:59:58;;;;;;;12.98;11.77;;;;;;;;;;6245436;28;20041;-75
2024/01/31 06:03:00;;;;;;;12.48;10.20;;;;;;;;;;6227893;28;20041;-73
2024/01/31 06:06:03;;;;;;;10.20;9.18;;;;;;;;;;6229797;28;20057;-73
2024/01/31 06:09:05;;;;;;;13.85;12.77;;;;;;;;;;6213048;28;20088;-73
2024/01/31 06:12:08;;;;;;;14.75;12.45;;;;;;;;;;6237250;28;20103;-74
2024/01/31 06:15:10;;;;;;;10.85;7.93;;;;;;;;;;6203186;28;20788;-74
2024/01/31 06:18:14;;;;;;;17.63;13.00;;;;;;;;;;6229075;28;20056;-74
2024/01/31 06:21:17;;;;;;;14.75;13.63;;;;;;;;;;6244377;28;20942;-74
2024/01/31 06:24:19;;;;;;;28.45;12.32;;;;;;;;;;6236798;28;20044;-74
2024/01/31 06:27:21;;;;;;;19.50;12.80;;;;;;;;;;6252056;28;20068;-73
2024/01/31 06:30:31;;;;;;;15.15;11.52;;;;;;;;;;6225620;28;20088;-74
2024/01/31 06:33:35;;;;;;;22.67;11.05;;;;;;;;;;6218806;28;20049;-73
2024/01/31 06:36:40;;;;;;;17.65;16.02;;;;;;;;;;6231966;28;20832;-73
2024/01/31 06:39:42;;;;;;;13.50;12.43;;;;;;;;;;6237638;28;20033;-73
2024/01/31 06:42:45;;;;;;;26.38;16.52;;;;;;;;;;6232859;28;20500;-75
2024/01/31 06:45:48;;;;;;;28.10;20.60;;;;;;;;;;6231066;28;20047;-74
2024/01/31 06:48:50;;;;;;;21.20;15.85;;;;;;;;;;6213543;28;20037;-74
2024/01/31 06:51:52;;;;;;;20.45;13.80;;;;;;;;;;6231617;28;20129;-73
2024/01/31 06:54:55;;;;;;;25.00;21.25;;;;;;;;;;6230310;28;20813;-73
2024/01/31 06:57:57;;;;;;;19.27;15.75;;;;;;;;;;6236438;28;20686;-73
2024/01/31 07:01:01;;;;;;;12.93;11.85;;;;;;;;;;6229782;28;20073;-73
2024/01/31 07:04:06;;;;;;;16.00;12.90;;;;;;;;;;6237355;28;20080;-74
2024/01/31 07:07:08;;;;;;;11.85;10.30;;;;;;;;;;6231662;28;20057;-74
2024/01/31 07:10:11;;;;;;;9.88;8.30;;;;;;;;;;6238458;28;20045;-74
2024/01/31 07:13:13;;;;;;;14.73;10.20;;;;;;;;;;6231758;28;20259;-75
2024/01/31 07:16:15;;;;;;;16.98;14.80;;;;;;;;;;6234344;28;20042;-74
2024/01/31 07:19:17;;;;;;;16.00;13.13;;;;;;;;;;6235322;28;20045;-74
2024/01/31 07:22:19;;;;;;;14.00;11.77;;;;;;;;;;6214951;28;20101;-74
2024/01/31 07:25:22;;;;;;;19.63;14.18;;;;;;;;;;6235373;28;20620;-74
2024/01/31 07:28:24;;;;;;;12.73;8.07;;;;;;;;;;6216895;28;20056;-74
2024/01/31 07:31:26;;;;;;;17.50;13.48;;;;;;;;;;6252311;28;20183;-74
2024/01/31 07:34:29;;;;;;;18.17;12.10;;;;;;;;;;6210752;28;20053;-74
2024/01/31 07:37:31;;;;;;;14.82;12.20;;;;;;;;;;6223305;28;20141;-74
2024/01/31 07:40:33;;;;;;;14.98;13.15;;;;;;;;;;6229696;28;20048;-73
2024/01/31 07:43:36;;;;;;;19.98;12.85;;;;;;;;;;6236222;28;20207;-74
2024/01/31 07:46:44;;;;;;;19.63;14.63;;;;;;;;;;6238152;28;20056;-73
2024/01/31 07:49:46;;;;;;;19.58;14.57;;;;;;;;;;6230143;28;20641;-74
2024/01/31 07:52:49;;;;;;;16.08;13.02;;;;;;;;;;6234380;28;20168;-73
2024/01/31 07:55:51;;;;;;;20.95;16.92;;;;;;;;;;6224519;28;20093;-74
2024/01/31 07:58:53;;;;;;;14.07;12.25;;;;;;;;;;6235193;28;20557;-73
2024/01/31 08:01:56;;;;;;;12.65;10.82;;;;;;;;;;6264391;28;20029;-75
2024/01/31 08:04:58;;;;;;;18.35;14.77;;;;;;;;;;6254371;28;20111;-74
2024/01/31 08:08:00;;;;;;;16.10;14.27;;;;;;;;;;6226665;28;20074;-74
2024/01/31 08:11:03;;;;;;;15.00;9.32;;;;;;;;;;6221833;28;20049;-73
2024/01/31 08:14:05;;;;;;;15.60;13.32;;;;;;;;;;6215084;28;20048;-74
2024/01/31 08:17:07;;;;;;;17.52;11.88;;;;;;;;;;6236982;28;20042;-73
2024/01/31 08:20:10;;;;;;;13.43;11.75;;;;;;;;;;6232809;28;20045;-73
2024/01/31 08:23:12;;;;;;;20.15;15.23;;;;;;;;;;6209248;28;20076;-73
2024/01/31 08:26:17;;;;;;;18.90;14.60;;;;;;;;;;6225352;28;20065;-74
2024/01/31 08:29:21;;;;;;;19.83;15.40;;;;;;;;;;6235713;28;20560;-73
2024/01/31 08:32:30;;;;;;;26.85;15.43;;;;;;;;;;6233464;28;20073;-73
2024/01/31 08:35:32;;;;;;;23.98;16.70;;;;;;;;;;6233439;28;20064;-73
2024/01/31 08:38:36;;;;;;;13.00;11.40;;;;;;;;;;6234645;28;20106;-73
2024/01/31 08:41:38;;;;;;;19.35;12.80;;;;;;;;;;6230736;28;20045;-74
2024/01/31 08:44:40;;;;;;;15.00;8.82;;;;;;;;;;6235534;28;20436;-73
2024/01/31 08:47:44;;;;;;;15.70;12.50;;;;;;;;;;6219826;28;20810;-73
2024/01/31 08:50:47;;;;;;;15.27;11.52;;;;;;;;;;6251678;28;20112;-73
2024/01/31 08:53:51;;;;;;;16.73;8.18;;;;;;;;;;6227062;28;20049;-74
2024/01/31 08:56:53;;;;;;;20.35;14.80;;;;;;;;;;6227700;28;20060;-73
2024/01/31 08:59:56;;;;;;;11.73;7.65;;;;;;;;;;6234078;28;20501;-73
2024/01/31 09:02:58;;;;;;;8.95;8.02;;;;;;;;;;6231748;28;20053;-73
2024/01/31 09:06:01;;;;;;;14.13;10.75;;;;;;;;;;6228151;28;20058;-74
2024/01/31 09:09:04;;;;;;;18.88;14.15;;;;;;;;;;6208630;28;20054;-74
2024/01/31 09:12:06;;;;;;;14.07;7.30;;;;;;;;;;6232082;28;20124;-73
2024/01/31 09:15:09;;;;;;;18.10;12.98;;;;;;;;;;6230277;28;20094;-72
2024/01/31 09:18:13;;;;;;;18.88;13.18;;;;;;;;;;6225333;28;20060;-74
2024/01/31 09:21:27;;;;;;;13.25;9.68;;;;;;;;;;6230681;28;20041;-72
2024/01/31 09:24:29;;;;;;;16.70;14.93;;;;;;;;;;6216014;28;20071;-75
2024/01/31 09:27:33;;;;;;;11.30;10.00;;;;;;;;;;6231550;28;20110;-74
2024/01/31 09:30:35;;;;;;;16.75;14.88;;;;;;;;;;6231918;28;20087;-73
2024/01/31 09:33:37;;;;;;;15.30;13.20;;;;;;;;;;6229334;28;20144;-72
2024/01/31 09:36:39;;;;;;;15.55;12.32;;;;;;;;;;6231595;28;21033;-74
2024/01/31 09:39:42;;;;;;;11.95;10.52;;;;;;;;;;6230470;28;20690;-73
2024/01/31 09:42:44;;;;;;;12.02;9.23;;;;;;;;;;6231750;28;20048;-72
2024/01/31 09:45:47;;;;;;;15.68;11.40;;;;;;;;;;6260348;28;20040;-73
2024/01/31 09:48:50;;;;;;;13.07;10.57;;;;;;;;;;6260098;28;20107;-72
2024/01/31 09:52:01;;;;;;;19.23;14.35;;;;;;;;;;6226119;28;20037;-72
2024/01/31 09:55:04;;;;;;;16.83;11.60;;;;;;;;;;6218883;28;20061;-73
2024/01/31 09:58:06;;;;;;;16.50;12.98;;;;;;;;;;6245144;28;20556;-73
2024/01/31 10:01:09;;;;;;;15.80;11.80;;;;;;;;;;6241920;28;20041;-72
2024/01/31 10:04:22;;;;;;;15.13;11.05;;;;;;;;;;6250993;28;20180;-73
2024/01/31 10:07:29;;;;;;;18.08;11.45;;;;;;;;;;6263397;28;20076;-73
2024/01/31 10:10:31;;;;;;;11.95;10.05;;;;;;;;;;6228931;28;20068;-73
2024/01/31 10:13:36;;;;;;;10.70;9.00;;;;;;;;;;6213247;28;20136;-73
2024/01/31 10:16:39;;;;;;;14.57;10.32;;;;;;;;;;6226305;28;20979;-72
2024/01/31 10:19:41;;;;;;;16.40;11.48;;;;;;;;;;6228530;28;20045;-73
2024/01/31 10:22:44;;;;;;;17.25;12.10;;;;;;;;;;6242384;28;20041;-73
2024/01/31 10:25:46;;;;;;;16.70;10.57;;;;;;;;;;6229596;28;20049;-73
2024/01/31 10:28:48;;;;;;;15.27;9.55;;;;;;;;;;6243470;28;20167;-72
2024/01/31 10:31:55;;;;;;;15.75;10.13;;;;;;;;;;6228357;28;20062;-74
2024/01/31 10:35:00;;;;;;;15.32;12.73;;;;;;;;;;6242785;28;20061;-74
2024/01/31 10:38:22;;;;;;;12.38;9.45;;;;;;;;;;6212740;28;20045;-74
2024/01/31 10:41:25;;;;;;;11.55;7.10;;;;;;;;;;6222644;28;20049;-72
2024/01/31 10:44:28;;;;;;;14.25;9.98;;;;;;;;;;6228152;28;20053;-73
2024/01/31 10:47:30;;;;;;;11.95;9.48;;;;;;;;;;6231296;28;20117;-74
2024/01/31 10:50:33;;;;;;;10.93;5.18;;;;;;;;;;6227431;28;20558;-72
2024/01/31 10:53:35;;;;;;;11.48;5.65;;;;;;;;;;6262298;28;20383;-72
2024/01/31 10:56:38;;;;;;;11.73;10.52;;;;;;;;;;6215573;28;20049;-73
2024/01/31 10:59:40;;;;;;;8.60;5.95;;;;;;;;;;6238866;28;20538;-72
2024/01/31 11:02:43;;;;;;;9.50;5.13;;;;;;;;;;6228371;28;20050;-72
2024/01/31 11:05:47;;;;;;;7.00;4.55;;;;;;;;;;6228087;28;21027;-73
2024/01/31 11:08:49;;;;;;;8.48;7.70;;;;;;;;;;6255838;28;20052;-72
2024/01/31 11:12:05;;;;;;;12.95;8.38;;;;;;;;;;6228234;28;20057;-72
2024/01/31 11:15:10;;;;;;;9.50;5.85;;;;;;;;;;6228077;28;20429;-72
2024/01/31 11:18:13;;;;;;;14.10;12.80;;;;;;;;;;6231407;28;20130;-73
2024/01/31 11:21:15;;;;;;;12.45;8.00;;;;;;;;;;6231247;28;20053;-72
2024/01/31 11:24:18;;;;;;;10.68;5.97;;;;;;;;;;6225961;28;20136;-72
2024/01/31 11:27:20;;;;;;;10.95;6.88;;;;;;;;;;6226163;28;20053;-73
2024/01/31 11:30:22;;;;;;;12.55;9.07;;;;;;;;;;6255280;28;20116;-74
2024/01/31 11:33:24;;;;;;;10.13;6.05;;;;;;;;;;6209065;28;20049;-73
2024/01/31 11:36:27;;;;;;;12.18;9.32;;;;;;;;;;6231867;28;20794;-74
2024/01/31 11:39:30;;;;;;;10.18;5.40;;;;;;;;;;6236666;28;20490;-73
2024/01/31 11:42:32;;;;;;;10.63;3.97;;;;;;;;;;6237157;28;20128;-73
2024/01/31 11:45:34;;;;;;;6.78;4.07;;;;;;;;;;6217446;28;20175;-74
2024/01/31 11:48:37;;;;;;;9.32;8.18;;;;;;;;;;6230828;28;20103;-74
2024/01/31 11:51:39;;;;;;;7.63;4.30;;;;;;;;;;6224715;28;20041;-73
2024/01/31 11:54:41;;;;;;;9.43;7.18;;;;;;;;;;6264182;28;20555;-74
2024/01/31 11:57:44;;;;;;;6.95;4.60;;;;;;;;;;6230755;28;20041;-74
2024/01/31 12:00:46;;;;;;;9.38;5.10;;;;;;;;;;6232721;28;20049;-73
2024/01/31 12:03:49;;;;;;;9.55;4.53;;;;;;;;;;6229550;28;20148;-74
2024/01/31 12:07:04;;;;;;;8.98;4.20;;;;;;;;;;6241349;28;20077;-74
2024/01/31 12:10:07;;;;;;;7.60;4.65;;;;;;;;;;6260117;28;20054;-74
2024/01/31 12:13:12;;;;;;;9.77;6.50;;;;;;;;;;6244309;28;20032;-74
2024/01/31 12:16:14;;;;;;;7.47;5.47;;;;;;;;;;6249425;28;20535;-74
2024/01/31 12:19:19;;;;;;;8.93;5.25;;;;;;;;;;6231741;28;20103;-73
2024/01/31 12:22:21;;;;;;;12.20;11.02;;;;;;;;;;6227605;28;20058;-74
2024/01/31 12:25:24;;;;;;;8.20;7.28;;;;;;;;;;6235764;28;20826;-73
2024/01/31 12:28:26;;;;;;;6.28;4.93;;;;;;;;;;6233597;28;20846;-74
2024/01/31 12:31:29;;;;;;;8.27;4.35;;;;;;;;;;6233322;28;20037;-74
2024/01/31 12:34:31;;;;;;;11.30;6.25;;;;;;;;;;6238462;28;20053;-75
2024/01/31 12:37:34;;;;;;;8.13;5.05;;;;;;;;;;6234238;28;20053;-74
2024/01/31 12:40:37;;;;;;;8.85;5.03;;;;;;;;;;6217119;28;20057;-74
2024/01/31 12:43:39;;;;;;;13.63;8.93;;;;;;;;;;6227343;28;20037;-73
2024/01/31 12:46:42;;;;;;;7.80;5.47;;;;;;;;;;6243467;28;20049;-71
2024/01/31 12:49:44;;;;;;;11.88;6.75;;;;;;;;;;6201003;28;20054;-73
2024/01/31 12:52:47;;;;;;;14.70;7.60;;;;;;;;;;6230340;28;20049;-75
2024/01/31 12:55:49;;;;;;;14.07;6.50;;;;;;;;;;6230800;28;20460;-74
2024/01/31 12:58:53;;;;;;;14.60;8.32;;;;;;;;;;6197220;28;20045;-74
2024/01/31 13:01:55;;;;;;;15.38;10.52;;;;;;;;;;6248152;28;20187;-74
2024/01/31 13:04:58;;;;;;;10.20;6.22;;;;;;;;;;6231552;28;20052;-74
2024/01/31 13:08:00;;;;;;;11.10;7.15;;;;;;;;;;6235434;28;20807;-72
2024/01/31 13:11:03;;;;;;;9.95;6.78;;;;;;;;;;6229929;28;20053;-72
2024/01/31 13:14:06;;;;;;;10.50;6.93;;;;;;;;;;6213312;28;20625;-73
2024/01/31 13:17:08;;;;;;;10.60;6.30;;;;;;;;;;6229693;28;20052;-73
2024/01/31 13:20:11;;;;;;;11.82;6.63;;;;;;;;;;6225097;28;20053;-72
2024/01/31 13:23:15;;;;;;;14.93;6.25;;;;;;;;;;6231948;28;20049;-73
2024/01/31 13:26:17;;;;;;;9.93;4.72;;;;;;;;;;6228132;28;20848;-73
2024/01/31 13:29:21;;;;;;;10.80;6.57;;;;;;;;;;6230501;28;20060;-73
2024/01/31 13:32:24;;;;;;;9.10;5.93;;;;;;;;;;6225443;28;20894;-72
2024/01/31 13:35:26;;;;;;;9.40;5.35;;;;;;;;;;6229056;28;20168;-72
2024/01/31 13:38:28;;;;;;;12.25;7.75;;;;;;;;;;6231164;28;20580;-72
2024/01/31 13:43:11;;;;;;;12.80;6.65;;;;;;;;;;6240702;27;1841387;-73
2024/01/31 13:46:14;;;;;;;10.38;5.57;;;;;;;;;;6294419;28;20059;-73
2024/01/31 13:49:18;;;;;;;11.48;5.22;;;;;;;;;;6283043;28;20096;-73
2024/01/31 13:52:21;;;;;;;;;;;;;;;;;;6314729;28;20529;-73
2024/01/31 13:55:23;;;;;;;10.82;6.22;;;;;;;;;;6323640;28;19928;-73
2024/01/31 13:58:25;;;;;;;19.40;10.95;;;;;;;;;;6306898;28;20055;-73
2024/01/31 14:01:27;;;;;;;13.00;6.70;;;;;;;;;;6311719;28;20055;-73
2024/01/31 14:04:29;;;;;;;11.82;6.18;;;;;;;;;;6269234;28;20512;-73
2024/01/31 14:07:31;;;;;;;10.10;5.40;;;;;;;;;;6294188;28;20056;-73
2024/01/31 14:10:34;;;;;;;9.93;6.55;;;;;;;;;;6291107;28;20168;-73
2024/01/31 14:13:36;;;;;;;11.20;6.90;;;;;;;;;;6307464;28;20051;-75
2024/01/31 14:16:38;;;;;;;19.52;16.27;;;;;;;;;;6319478;28;20599;-74
2024/01/31 14:19:40;;;;;;;10.93;6.40;;;;;;;;;;6306888;28;20099;-73
2024/01/31 14:22:42;;;;;;;13.13;6.53;;;;;;;;;;6293807;28;20039;-73
2024/01/31 14:26:04;;;;;;;10.43;6.50;;;;;;;;;;6330758;28;20057;-73
2024/01/31 14:29:06;;;;;;;26.33;15.65;;;;;;;;;;6326452;28;20040;-74
2024/01/31 14:32:12;;;;;;;13.88;7.07;;;;;;;;;;6312091;28;20092;-73
2024/01/31 14:35:14;;;;;;;9.77;6.40;;;;;;;;;;6310568;28;20039;-72
2024/01/31 14:38:18;;;;;;;11.73;5.78;;;;;;;;;;6321612;28;20085;-74
2024/01/31 14:41:20;;;;;;;12.65;6.43;;;;;;;;;;6323618;28;20135;-74
2024/01/31 14:44:24;;;;;;;10.93;6.38;;;;;;;;;;6321996;28;20028;-74
2024/01/31 14:47:26;;;;;;;8.85;6.07;;;;;;;;;;6308428;28;20070;-75
2024/01/31 14:50:31;;;;;;;13.82;7.35;;;;;;;;;;6317192;28;20081;-74
2024/01/31 14:53:33;;;;;;;15.63;9.25;;;;;;;;;;6295931;28;20036;-74
2024/01/31 14:56:49;;;;;;;16.30;12.48;;;;;;;;;;6286654;28;20660;-74
2024/01/31 14:59:51;;;;;;;16.70;9.38;;;;;;;;;;6287576;28;20048;-75
2024/01/31 15:02:53;;;;;;;24.80;16.17;;;;;;;;;;6261309;28;20674;-74
2024/01/31 15:05:55;;;;;;;16.35;9.20;;;;;;;;;;6301885;28;20103;-74
2024/01/31 15:08:58;;;;;;;20.48;11.95;;;;;;;;;;6285324;28;20048;-75
2024/01/31 15:12:00;;;;;;;20.17;11.00;;;;;;;;;;6285032;28;20040;-74
2024/01/31 15:15:03;;;;;;;22.15;11.25;;;;;;;;;;6305619;28;20044;-73
2024/01/31 15:18:06;;;;;;;51.90;28.30;;;;;;;;;;6301302;28;20040;-73
2024/01/31 15:21:08;;;;;;;45.47;27.60;;;;;;;;;;6298325;28;20048;-74
2024/01/31 15:24:10;;;;;;;86.45;45.03;;;;;;;;;;6289460;28;20108;-74
2024/01/31 15:27:13;;;;;;;51.53;27.08;;;;;;;;;;6284901;28;20044;-74
2024/01/31 15:30:16;;;;;;;20.60;11.02;;;;;;;;;;6300976;28;20044;-73
2024/01/31 15:33:19;;;;;;;19.65;10.60;;;;;;;;;;6306340;28;20044;-74
2024/01/31 15:36:23;;;;;;;14.48;10.18;;;;;;;;;;6298227;28;20036;-75
2024/01/31 15:39:25;;;;;;;15.90;8.68;;;;;;;;;;6269864;28;20064;-74
2024/01/31 15:42:29;;;;;;;16.48;8.98;;;;;;;;;;6266416;28;20040;-74
2024/01/31 15:45:31;;;;;;;20.30;8.55;;;;;;;;;;6271314;28;20052;-75
2024/01/31 15:48:33;;;;;;;17.10;10.13;;;;;;;;;;6266155;28;20112;-75
2024/01/31 15:51:39;;;;;;;13.60;8.05;;;;;;;;;;6297713;28;20051;-74
2024/01/31 15:54:41;;;;;;;13.50;8.35;;;;;;;;;;6277947;28;20776;-74
2024/01/31 15:57:44;;;;;;;14.65;8.70;;;;;;;;;;6300850;28;20155;-74
2024/01/31 16:00:46;;;;;;;21.30;8.63;;;;;;;;;;6284707;28;20127;-74
2024/01/31 16:03:50;;;;;;;42.25;17.08;;;;;;;;;;6304746;28;20040;-74
2024/01/31 16:06:53;;;;;;;39.05;18.15;;;;;;;;;;6282827;28;20170;-74
2024/01/31 16:09:56;;;;;;;21.48;9.95;;;;;;;;;;6270242;28;20456;-74
2024/01/31 16:12:58;;;;;;;35.90;12.90;;;;;;;;;;6274175;28;20036;-74
2024/01/31 16:16:01;;;;;;;40.58;17.45;;;;;;;;;;6282407;28;20079;-74
2024/01/31 16:19:03;;;;;;;42.55;18.95;;;;;;;;;;6285105;28;20189;-74
2024/01/31 16:22:06;;;;;;;88.57;33.47;;;;;;;;;;6306363;28;20532;-74
2024/01/31 16:25:08;;;;;;;79.85;33.55;;;;;;;;;;6303091;28;20045;-75
2024/01/31 16:28:11;;;;;;;31.48;15.88;;;;;;;;;;6278780;28;20074;-75
2024/01/31 16:31:14;;;;;;;19.75;9.02;;;;;;;;;;6281868;28;20074;-75
2024/01/31 16:34:19;;;;;;;34.40;17.30;;;;;;;;;;6299147;28;20572;-75
2024/01/31 16:37:22;;;;;;;52.65;28.02;;;;;;;;;;6289703;28;20173;-74
2024/01/31 16:40:24;;;;;;;65.13;25.35;;;;;;;;;;6271337;28;21429;-74
2024/01/31 16:43:26;;;;;;;31.67;15.75;;;;;;;;;;6306073;28;20040;-75
2024/01/31 16:46:29;;;;;;;16.40;7.32;;;;;;;;;;6287899;28;21054;-74
2024/01/31 16:49:32;;;;;;;19.85;9.55;;;;;;;;;;6290741;28;20044;-74
2024/01/31 16:52:34;;;;;;;24.23;9.15;;;;;;;;;;6302129;28;20138;-73
2024/01/31 16:55:37;;;;;;;22.92;8.48;;;;;;;;;;6288273;28;20055;-75
2024/01/31 16:58:39;;;;;;;26.05;11.23;;;;;;;;;;6273018;28;20194;-73
2024/01/31 17:01:45;;;;;;;23.55;11.27;;;;;;;;;;6280284;28;20043;-74
2024/01/31 17:04:49;;;;;;;24.73;14.02;;;;;;;;;;6303222;28;20052;-73
2024/01/31 17:07:55;;;;;;;30.13;16.42;;;;;;;;;;6277639;28;20047;-74
2024/01/31 17:11:02;;;;;;;43.03;28.52;;;;;;;;;;6298337;28;20119;-74
2024/01/31 17:14:04;;;;;;;39.92;29.85;;;;;;;;;;6308608;28;20078;-74
2024/01/31 17:17:06;;;;;;;41.95;29.60;;;;;;;;;;6287309;28;20068;-75
2024/01/31 17:20:08;;;;;;;31.05;22.27;;;;;;;;;;6285506;28;20703;-75
2024/01/31 17:23:12;;;;;;;35.90;21.63;;;;;;;;;;6301098;28;20037;-74
2024/01/31 17:26:17;;;;;;;27.30;17.52;;;;;;;;;;6280524;28;20044;-75
2024/01/31 17:29:19;;;;;;;22.60;14.00;;;;;;;;;;6275894;28;20044;-75
2024/01/31 17:32:21;;;;;;;22.20;13.38;;;;;;;;;;6298685;28;20036;-75
2024/01/31 17:35:25;;;;;;;24.35;13.45;;;;;;;;;;6271472;28;20051;-75
2024/01/31 17:38:27;;;;;;;17.92;11.60;;;;;;;;;;6296072;28;20048;-74
2024/01/31 17:41:29;;;;;;;19.73;11.48;;;;;;;;;;6281172;28;20044;-75
2024/01/31 17:44:34;;;;;;;15.52;9.27;;;;;;;;;;6262424;28;20055;-74
2024/01/31 17:47:38;;;;;;;82.75;31.50;;;;;;;;;;6281094;28;20047;-74
2024/01/31 17:50:40;;;;;;;57.25;27.17;;;;;;;;;;6263472;28;20051;-75
2024/01/31 17:53:43;;;;;;;26.20;14.15;;;;;;;;;;6279948;28;20044;-76
2024/01/31 17:56:45;;;;;;;27.73;15.27;;;;;;;;;;6263909;28;20040;-75
2024/01/31 17:59:48;;;;;;;38.35;18.77;;;;;;;;;;6266628;28;20543;-75